Atlanta, Texas
Current Conditions -  °F | °C
As of 7:53 PM on Tuesday 21 Oct 2014 (Local Time) from KTXK Reporting Station
Clear Clear  
Wind Chill: 69°   Ceiling: Unl
Heat Index: 69°   Visibility: 10mi
Dew Point: 61°   Wind: 3mph
Humidity: 75%   Direction: 110°ESE
Pressure: 30.05"   Gusts: NA
Location:  33.12°N, 94.17°W
Report Text: KTXK 220053Z 11003KT 10SM CLR 21/16 A3005 RMK AO2 SLP173 T02060161
Loading
Personal Weather Stations






























Interactive Weather Map
Tropical Storm Tracking
New forecast layout! Learn more

10-Day Weather Forecast

Advertisements
Track Severe Weather on mobile